sensor_id;sensor_type;location;lat;lon;timestamp;temperature;humidity
18281;DHT22;9266;51.132;17.062;2023-11-19T00:00:51;2.70;99.90
18281;DHT22;9266;51.132;17.062;2023-11-19T00:03:45;2.20;99.90
18281;DHT22;9266;51.132;17.062;2023-11-19T00:06:12;2.80;99.90
18281;DHT22;9266;51.132;17.062;2023-11-19T00:11:39;2.60;99.90
18281;DHT22;9266;51.132;17.062;2023-11-19T00:14:20;2.60;99.90
18281;DHT22;9266;51.132;17.062;2023-11-19T00:16:48;2.70;99.90
18281;DHT22;9266;51.132;17.062;2023-11-19T00:19:18;3.50;99.90
18281;DHT22;9266;51.132;17.062;2023-11-19T00:22:01;2.60;99.90
18281;DHT22;9266;51.132;17.062;2023-11-19T00:24:29;2.60;99.90
18281;DHT22;9266;51.132;17.062;2023-11-19T00:26:58;4.10;99.90
18281;DHT22;9266;51.132;17.062;2023-11-19T00:29:25;2.70;99.90
18281;DHT22;9266;51.132;17.062;2023-11-19T00:31:55;2.50;99.90
18281;DHT22;9266;51.132;17.062;2023-11-19T00:34:22;2.60;99.90
18281;DHT22;9266;51.132;17.062;2023-11-19T00:36:51;2.60;99.90
18281;DHT22;9266;51.132;17.062;2023-11-19T00:39:18;2.60;99.90
18281;DHT22;9266;51.132;17.062;2023-11-19T00:41:49;2.50;99.90
18281;DHT22;9266;51.132;17.062;2023-11-19T00:44:17;2.50;99.90
18281;DHT22;9266;51.132;17.062;2023-11-19T00:46:45;3.50;99.90
18281;DHT22;9266;51.132;17.062;2023-11-19T00:49:22;2.50;99.90
18281;DHT22;9266;51.132;17.062;2023-11-19T00:51:49;4.10;99.90
18281;DHT22;9266;51.132;17.062;2023-11-19T00:54:16;2.50;99.90
18281;DHT22;9266;51.132;17.062;2023-11-19T00:56:47;2.50;99.90
18281;DHT22;9266;51.132;17.062;2023-11-19T00:59:14;2.50;99.90
18281;DHT22;9266;51.132;17.062;2023-11-19T01:01:41;2.40;99.90
18281;DHT22;9266;51.132;17.062;2023-11-19T01:04:09;2.50;99.90
18281;DHT22;9266;51.132;17.062;2023-11-19T01:06:37;2.40;99.90
18281;DHT22;9266;51.132;17.062;2023-11-19T01:09:05;2.20;99.90
18281;DHT22;9266;51.132;17.062;2023-11-19T01:11:32;2.20;99.90
18281;DHT22;9266;51.132;17.062;2023-11-19T01:14:02;2.30;99.90
18281;DHT22;9266;51.132;17.062;2023-11-19T01:16:29;2.30;99.90
18281;DHT22;9266;51.132;17.062;2023-11-19T01:18:59;1.70;99.90
18281;DHT22;9266;51.132;17.062;2023-11-19T01:21:30;2.10;99.90
18281;DHT22;9266;51.132;17.062;2023-11-19T01:23:59;2.10;99.90
18281;DHT22;9266;51.132;17.062;2023-11-19T01:26:29;4.90;99.90
18281;DHT22;9266;51.132;17.062;2023-11-19T01:28:56;2.00;99.90
18281;DHT22;9266;51.132;17.062;2023-11-19T01:31:23;2.10;99.90
18281;DHT22;9266;51.132;17.062;2023-11-19T01:33:50;2.10;99.90
18281;DHT22;9266;51.132;17.062;2023-11-19T01:36:18;2.00;99.90
18281;DHT22;9266;51.132;17.062;2023-11-19T01:38:46;3.10;99.90
18281;DHT22;9266;51.132;17.062;2023-11-19T01:41:19;2.30;99.90
18281;DHT22;9266;51.132;17.062;2023-11-19T01:43:56;3.50;99.90
18281;DHT22;9266;51.132;17.062;2023-11-19T01:46:31;2.10;99.90
18281;DHT22;9266;51.132;17.062;2023-11-19T01:49:02;2.90;99.90
18281;DHT22;9266;51.132;17.062;2023-11-19T01:51:33;2.00;99.90
18281;DHT22;9266;51.132;17.062;2023-11-19T01:54:01;3.10;99.90
18281;DHT22;9266;51.132;17.062;2023-11-19T01:56:34;0.20;99.90
18281;DHT22;9266;51.132;17.062;2023-11-19T01:59:04;0.20;99.90
18281;DHT22;9266;51.132;17.062;2023-11-19T02:01:43;2.00;99.90
18281;DHT22;9266;51.132;17.062;2023-11-19T02:04:13;2.10;99.90
18281;DHT22;9266;51.132;17.062;2023-11-19T02:06:48;2.10;99.90
18281;DHT22;9266;51.132;17.062;2023-11-19T02:09:19;3.20;99.90
18281;DHT22;9266;51.132;17.062;2023-11-19T02:12:07;2.10;99.90
18281;DHT22;9266;51.132;17.062;2023-11-19T02:14:37;0.60;99.90
18281;DHT22;9266;51.132;17.062;2023-11-19T02:17:12;2.10;99.90
18281;DHT22;9266;51.132;17.062;2023-11-19T02:19:51;1.70;99.90
18281;DHT22;9266;51.132;17.062;2023-11-19T02:22:19;2.10;99.90
18281;DHT22;9266;51.132;17.062;2023-11-19T02:24:54;4.70;99.90
18281;DHT22;9266;51.132;17.062;2023-11-19T02:27:29;2.20;99.90
18281;DHT22;9266;51.132;17.062;2023-11-19T02:30:04;1.00;99.90
18281;DHT22;9266;51.132;17.062;2023-11-19T02:32:34;2.10;99.90
18281;DHT22;9266;51.132;17.062;2023-11-19T02:35:01;3.50;99.90
18281;DHT22;9266;51.132;17.062;2023-11-19T02:37:28;2.20;99.90
18281;DHT22;9266;51.132;17.062;2023-11-19T02:39:56;4.60;99.90
18281;DHT22;9266;51.132;17.062;2023-11-19T02:42:26;4.90;99.90
18281;DHT22;9266;51.132;17.062;2023-11-19T02:44:53;2.20;99.90
18281;DHT22;9266;51.132;17.062;2023-11-19T02:47:22;2.20;99.90
18281;DHT22;9266;51.132;17.062;2023-11-19T02:49:49;2.20;99.90
18281;DHT22;9266;51.132;17.062;2023-11-19T02:52:18;2.10;99.90
18281;DHT22;9266;51.132;17.062;2023-11-19T02:54:45;2.10;99.90
18281;DHT22;9266;51.132;17.062;2023-11-19T02:57:12;2.80;99.90
18281;DHT22;9266;51.132;17.062;2023-11-19T02:59:40;2.30;99.90
18281;DHT22;9266;51.132;17.062;2023-11-19T03:02:09;2.20;99.90
18281;DHT22;9266;51.132;17.062;2023-11-19T03:04:40;2.20;99.90
18281;DHT22;9266;51.132;17.062;2023-11-19T03:07:09;2.20;99.90
18281;DHT22;9266;51.132;17.062;2023-11-19T03:09:36;2.10;99.90
18281;DHT22;9266;51.132;17.062;2023-11-19T03:12:07;2.10;99.90
18281;DHT22;9266;51.132;17.062;2023-11-19T03:14:37;2.10;99.90
18281;DHT22;9266;51.132;17.062;2023-11-19T03:17:04;2.20;99.90
18281;DHT22;9266;51.132;17.062;2023-11-19T03:19:31;2.10;99.90
18281;DHT22;9266;51.132;17.062;2023-11-19T03:22:01;2.00;99.90
18281;DHT22;9266;51.132;17.062;2023-11-19T03:24:28;0.90;99.90
18281;DHT22;9266;51.132;17.062;2023-11-19T03:26:56;2.10;99.90
18281;DHT22;9266;51.132;17.062;2023-11-19T03:29:23;2.20;99.90
18281;DHT22;9266;51.132;17.062;2023-11-19T03:31:54;1.30;99.90
18281;DHT22;9266;51.132;17.062;2023-11-19T03:34:21;2.00;99.90
18281;DHT22;9266;51.132;17.062;2023-11-19T03:36:47;2.10;99.90
18281;DHT22;9266;51.132;17.062;2023-11-19T03:39:16;4.10;99.90
18281;DHT22;9266;51.132;17.062;2023-11-19T03:41:45;2.10;99.90
18281;DHT22;9266;51.132;17.062;2023-11-19T03:44:12;2.10;99.90
18281;DHT22;9266;51.132;17.062;2023-11-19T03:46:39;3.40;99.90
18281;DHT22;9266;51.132;17.062;2023-11-19T03:49:06;2.10;99.90
18281;DHT22;9266;51.132;17.062;2023-11-19T03:51:33;3.40;99.90
18281;DHT22;9266;51.132;17.062;2023-11-19T03:54:04;3.70;99.90
18281;DHT22;9266;51.132;17.062;2023-11-19T03:56:33;2.20;99.90
18281;DHT22;9266;51.132;17.062;2023-11-19T03:59:00;2.30;99.90
18281;DHT22;9266;51.132;17.062;2023-11-19T04:01:28;2.10;99.90
18281;DHT22;9266;51.132;17.062;2023-11-19T04:03:55;2.10;99.90
18281;DHT22;9266;51.132;17.062;2023-11-19T04:06:26;2.10;99.90
18281;DHT22;9266;51.132;17.062;2023-11-19T04:08:53;2.00;99.90
18281;DHT22;9266;51.132;17.062;2023-11-19T04:11:24;2.10;99.90
18281;DHT22;9266;51.132;17.062;2023-11-19T04:13:52;2.00;99.90
18281;DHT22;9266;51.132;17.062;2023-11-19T04:16:19;2.00;99.90
18281;DHT22;9266;51.132;17.062;2023-11-19T04:18:54;2.30;99.90
18281;DHT22;9266;51.132;17.062;2023-11-19T04:21:21;2.10;99.90
18281;DHT22;9266;51.132;17.062;2023-11-19T04:23:48;5.10;99.90
18281;DHT22;9266;51.132;17.062;2023-11-19T04:26:15;2.10;99.90
18281;DHT22;9266;51.132;17.062;2023-11-19T04:28:43;3.30;99.90
18281;DHT22;9266;51.132;17.062;2023-11-19T04:31:12;-0.40;99.90
18281;DHT22;9266;51.132;17.062;2023-11-19T04:33:41;2.10;99.90
18281;DHT22;9266;51.132;17.062;2023-11-19T04:36:09;3.50;99.90
18281;DHT22;9266;51.132;17.062;2023-11-19T04:38:37;2.10;99.90
18281;DHT22;9266;51.132;17.062;2023-11-19T04:41:06;1.70;99.90
18281;DHT22;9266;51.132;17.062;2023-11-19T04:43:33;2.20;99.90
18281;DHT22;9266;51.132;17.062;2023-11-19T04:46:04;2.10;99.90
18281;DHT22;9266;51.132;17.062;2023-11-19T04:48:32;2.30;99.90
18281;DHT22;9266;51.132;17.062;2023-11-19T04:50:59;1.60;99.90
18281;DHT22;9266;51.132;17.062;2023-11-19T04:54:15;2.20;99.90
18281;DHT22;9266;51.132;17.062;2023-11-19T04:56:48;1.30;99.90
18281;DHT22;9266;51.132;17.062;2023-11-19T04:59:15;0.70;99.90
18281;DHT22;9266;51.132;17.062;2023-11-19T05:01:46;2.30;99.90
18281;DHT22;9266;51.132;17.062;2023-11-19T05:04:15;2.30;99.90
18281;DHT22;9266;51.132;17.062;2023-11-19T05:06:44;4.10;99.90
18281;DHT22;9266;51.132;17.062;2023-11-19T05:09:11;2.40;99.90
18281;DHT22;9266;51.132;17.062;2023-11-19T05:11:39;2.30;99.90
18281;DHT22;9266;51.132;17.062;2023-11-19T05:14:06;2.50;99.90
18281;DHT22;9266;51.132;17.062;2023-11-19T05:16:34;4.10;99.90
18281;DHT22;9266;51.132;17.062;2023-11-19T05:19:01;3.80;99.90
18281;DHT22;9266;51.132;17.062;2023-11-19T05:21:31;2.40;99.90
18281;DHT22;9266;51.132;17.062;2023-11-19T05:23:58;2.40;99.90
18281;DHT22;9266;51.132;17.062;2023-11-19T05:26:25;2.50;99.90
18281;DHT22;9266;51.132;17.062;2023-11-19T05:28:53;0.40;99.90
18281;DHT22;9266;51.132;17.062;2023-11-19T05:31:20;2.40;99.90
18281;DHT22;9266;51.132;17.062;2023-11-19T05:33:48;2.40;99.90
18281;DHT22;9266;51.132;17.062;2023-11-19T05:36:18;2.50;99.90
18281;DHT22;9266;51.132;17.062;2023-11-19T05:38:46;3.80;99.90
18281;DHT22;9266;51.132;17.062;2023-11-19T05:41:14;2.50;99.90
18281;DHT22;9266;51.132;17.062;2023-11-19T05:43:41;2.50;99.90
18281;DHT22;9266;51.132;17.062;2023-11-19T05:46:08;2.50;99.90
18281;DHT22;9266;51.132;17.062;2023-11-19T05:48:35;2.30;99.90
18281;DHT22;9266;51.132;17.062;2023-11-19T05:51:03;3.20;99.90
18281;DHT22;9266;51.132;17.062;2023-11-19T05:53:31;2.50;99.90
18281;DHT22;9266;51.132;17.062;2023-11-19T05:56:01;2.60;99.90
18281;DHT22;9266;51.132;17.062;2023-11-19T05:58:30;2.80;99.90
18281;DHT22;9266;51.132;17.062;2023-11-19T06:00:58;2.70;99.90
18281;DHT22;9266;51.132;17.062;2023-11-19T06:03:26;2.70;99.90
18281;DHT22;9266;51.132;17.062;2023-11-19T06:05:57;2.70;99.90
18281;DHT22;9266;51.132;17.062;2023-11-19T06:08:24;2.70;99.90
18281;DHT22;9266;51.132;17.062;2023-11-19T06:10:52;2.80;99.90
18281;DHT22;9266;51.132;17.062;2023-11-19T06:13:21;2.80;99.90
18281;DHT22;9266;51.132;17.062;2023-11-19T06:15:48;2.70;99.90
18281;DHT22;9266;51.132;17.062;2023-11-19T06:18:16;2.90;99.90
18281;DHT22;9266;51.132;17.062;2023-11-19T06:20:45;2.80;99.90
18281;DHT22;9266;51.132;17.062;2023-11-19T06:23:13;2.90;99.90
18281;DHT22;9266;51.132;17.062;2023-11-19T06:25:40;2.80;99.90
18281;DHT22;9266;51.132;17.062;2023-11-19T06:28:08;2.90;99.90
18281;DHT22;9266;51.132;17.062;2023-11-19T06:30:40;0.60;99.90
18281;DHT22;9266;51.132;17.062;2023-11-19T06:33:12;4.60;99.90
18281;DHT22;9266;51.132;17.062;2023-11-19T06:35:39;2.90;99.90
18281;DHT22;9266;51.132;17.062;2023-11-19T06:38:06;2.90;99.90
18281;DHT22;9266;51.132;17.062;2023-11-19T06:40:33;2.90;99.90
18281;DHT22;9266;51.132;17.062;2023-11-19T06:43:02;2.90;99.90
18281;DHT22;9266;51.132;17.062;2023-11-19T06:45:29;3.80;99.90
18281;DHT22;9266;51.132;17.062;2023-11-19T06:47:58;3.40;99.90
18281;DHT22;9266;51.132;17.062;2023-11-19T06:50:29;2.90;99.90
18281;DHT22;9266;51.132;17.062;2023-11-19T06:52:56;3.00;99.90
18281;DHT22;9266;51.132;17.062;2023-11-19T06:55:23;2.00;99.90
18281;DHT22;9266;51.132;17.062;2023-11-19T06:57:50;0.60;99.90
18281;DHT22;9266;51.132;17.062;2023-11-19T07:00:17;3.20;99.90
18281;DHT22;9266;51.132;17.062;2023-11-19T07:02:45;3.10;99.90
18281;DHT22;9266;51.132;17.062;2023-11-19T07:05:13;3.20;99.90
18281;DHT22;9266;51.132;17.062;2023-11-19T07:07:40;3.20;99.90
18281;DHT22;9266;51.132;17.062;2023-11-19T07:10:10;3.20;99.90
18281;DHT22;9266;51.132;17.062;2023-11-19T07:12:38;3.30;99.90
18281;DHT22;9266;51.132;17.062;2023-11-19T07:15:07;3.40;99.90
18281;DHT22;9266;51.132;17.062;2023-11-19T07:17:35;3.30;99.90
18281;DHT22;9266;51.132;17.062;2023-11-19T07:20:06;3.50;99.90
18281;DHT22;9266;51.132;17.062;2023-11-19T07:22:35;3.50;99.90
18281;DHT22;9266;51.132;17.062;2023-11-19T07:25:04;3.50;99.90
18281;DHT22;9266;51.132;17.062;2023-11-19T07:27:31;3.60;99.90
18281;DHT22;9266;51.132;17.062;2023-11-19T07:30:01;3.70;99.90
18281;DHT22;9266;51.132;17.062;2023-11-19T07:32:30;3.60;99.90
18281;DHT22;9266;51.132;17.062;2023-11-19T07:35:00;3.60;99.90
18281;DHT22;9266;51.132;17.062;2023-11-19T07:37:28;3.60;99.90
18281;DHT22;9266;51.132;17.062;2023-11-19T07:39:56;3.60;99.90
18281;DHT22;9266;51.132;17.062;2023-11-19T07:42:24;3.70;99.90
18281;DHT22;9266;51.132;17.062;2023-11-19T07:44:52;3.80;99.90
18281;DHT22;9266;51.132;17.062;2023-11-19T07:47:21;3.80;99.90
18281;DHT22;9266;51.132;17.062;2023-11-19T07:49:50;3.80;99.90
18281;DHT22;9266;51.132;17.062;2023-11-19T07:52:18;3.80;99.90
18281;DHT22;9266;51.132;17.062;2023-11-19T07:54:46;3.80;99.90
18281;DHT22;9266;51.132;17.062;2023-11-19T07:57:16;2.60;99.90
18281;DHT22;9266;51.132;17.062;2023-11-19T08:00:17;3.80;99.90
18281;DHT22;9266;51.132;17.062;2023-11-19T08:02:45;3.90;99.90
18281;DHT22;9266;51.132;17.062;2023-11-19T08:05:12;3.80;99.90
18281;DHT22;9266;51.132;17.062;2023-11-19T08:12:40;3.70;99.90
18281;DHT22;9266;51.132;17.062;2023-11-19T08:15:11;5.80;99.90
18281;DHT22;9266;51.132;17.062;2023-11-19T08:17:44;3.80;99.90
18281;DHT22;9266;51.132;17.062;2023-11-19T08:20:12;3.60;99.90
18281;DHT22;9266;51.132;17.062;2023-11-19T08:22:43;3.60;99.90
18281;DHT22;9266;51.132;17.062;2023-11-19T08:25:12;3.80;99.90
18281;DHT22;9266;51.132;17.062;2023-11-19T08:27:59;3.60;99.90
18281;DHT22;9266;51.132;17.062;2023-11-19T08:30:31;3.70;99.90
18281;DHT22;9266;51.132;17.062;2023-11-19T08:33:18;2.60;99.90
18281;DHT22;9266;51.132;17.062;2023-11-19T08:35:55;3.60;99.90
18281;DHT22;9266;51.132;17.062;2023-11-19T08:38:29;3.50;99.90
18281;DHT22;9266;51.132;17.062;2023-11-19T08:40:58;2.70;99.90
18281;DHT22;9266;51.132;17.062;2023-11-19T08:43:28;5.70;99.90
18281;DHT22;9266;51.132;17.062;2023-11-19T08:46:04;3.60;99.90
18281;DHT22;9266;51.132;17.062;2023-11-19T08:48:31;3.20;99.90
18281;DHT22;9266;51.132;17.062;2023-11-19T08:51:00;2.90;99.90
18281;DHT22;9266;51.132;17.062;2023-11-19T08:53:27;2.90;99.90
18281;DHT22;9266;51.132;17.062;2023-11-19T08:56:03;2.80;99.90
18281;DHT22;9266;51.132;17.062;2023-11-19T08:58:45;2.80;99.90
18281;DHT22;9266;51.132;17.062;2023-11-19T09:01:16;2.80;99.90
18281;DHT22;9266;51.132;17.062;2023-11-19T09:03:45;2.80;99.90
18281;DHT22;9266;51.132;17.062;2023-11-19T09:06:14;2.10;99.90
18281;DHT22;9266;51.132;17.062;2023-11-19T09:08:46;3.00;99.90
18281;DHT22;9266;51.132;17.062;2023-11-19T09:11:13;3.00;99.90
18281;DHT22;9266;51.132;17.062;2023-11-19T09:13:42;2.80;99.90
18281;DHT22;9266;51.132;17.062;2023-11-19T09:16:14;3.10;99.90
18281;DHT22;9266;51.132;17.062;2023-11-19T09:18:46;3.40;99.90
18281;DHT22;9266;51.132;17.062;2023-11-19T09:21:13;3.20;99.90
18281;DHT22;9266;51.132;17.062;2023-11-19T09:24:02;3.30;99.90
18281;DHT22;9266;51.132;17.062;2023-11-19T09:26:42;3.30;99.90
18281;DHT22;9266;51.132;17.062;2023-11-19T09:29:21;3.40;99.90
18281;DHT22;9266;51.132;17.062;2023-11-19T09:31:59;3.50;99.90
18281;DHT22;9266;51.132;17.062;2023-11-19T09:34:29;1.30;99.90
18281;DHT22;9266;51.132;17.062;2023-11-19T09:37:06;3.60;99.90
18281;DHT22;9266;51.132;17.062;2023-11-19T09:42:16;3.70;99.90
18281;DHT22;9266;51.132;17.062;2023-11-19T09:44:46;3.80;99.90
18281;DHT22;9266;51.132;17.062;2023-11-19T09:47:17;1.80;99.90
18281;DHT22;9266;51.132;17.062;2023-11-19T09:49:46;3.80;99.90
18281;DHT22;9266;51.132;17.062;2023-11-19T09:52:16;3.80;99.90
18281;DHT22;9266;51.132;17.062;2023-11-19T09:57:15;3.80;99.90
18281;DHT22;9266;51.132;17.062;2023-11-19T09:59:47;3.90;99.90
18281;DHT22;9266;51.132;17.062;2023-11-19T10:04:51;6.30;99.90
18281;DHT22;9266;51.132;17.062;2023-11-19T10:07:27;4.10;99.90
18281;DHT22;9266;51.132;17.062;2023-11-19T10:10:00;3.90;99.90
18281;DHT22;9266;51.132;17.062;2023-11-19T10:12:33;3.90;99.90
18281;DHT22;9266;51.132;17.062;2023-11-19T10:15:13;4.00;99.90
18281;DHT22;9266;51.132;17.062;2023-11-19T10:17:44;4.00;99.90
18281;DHT22;9266;51.132;17.062;2023-11-19T10:20:16;3.30;99.90
18281;DHT22;9266;51.132;17.062;2023-11-19T10:22:55;4.10;99.90
18281;DHT22;9266;51.132;17.062;2023-11-19T10:25:46;4.20;99.90
18281;DHT22;9266;51.132;17.062;2023-11-19T10:28:19;4.30;99.90
18281;DHT22;9266;51.132;17.062;2023-11-19T10:30:49;4.40;99.90
18281;DHT22;9266;51.132;17.062;2023-11-19T10:33:23;4.40;99.90
18281;DHT22;9266;51.132;17.062;2023-11-19T10:35:58;4.80;99.90
18281;DHT22;9266;51.132;17.062;2023-11-19T10:38:29;4.80;99.90
18281;DHT22;9266;51.132;17.062;2023-11-19T10:40:57;4.80;99.90
18281;DHT22;9266;51.132;17.062;2023-11-19T10:43:43;4.80;99.90
18281;DHT22;9266;51.132;17.062;2023-11-19T10:46:14;4.80;99.90
18281;DHT22;9266;51.132;17.062;2023-11-19T10:51:18;4.90;99.90
18281;DHT22;9266;51.132;17.062;2023-11-19T10:56:42;4.70;99.90
18281;DHT22;9266;51.132;17.062;2023-11-19T10:59:26;4.70;99.90
18281;DHT22;9266;51.132;17.062;2023-11-19T11:02:03;4.70;99.90
18281;DHT22;9266;51.132;17.062;2023-11-19T11:04:40;4.70;99.90
18281;DHT22;9266;51.132;17.062;2023-11-19T11:07:08;4.70;99.90
18281;DHT22;9266;51.132;17.062;2023-11-19T11:09:36;4.60;99.90
18281;DHT22;9266;51.132;17.062;2023-11-19T11:12:10;4.50;99.90
18281;DHT22;9266;51.132;17.062;2023-11-19T11:14:38;4.30;99.90
18281;DHT22;9266;51.132;17.062;2023-11-19T11:17:09;4.60;99.90
18281;DHT22;9266;51.132;17.062;2023-11-19T11:19:36;4.50;99.90
18281;DHT22;9266;51.132;17.062;2023-11-19T11:22:05;4.70;99.90
18281;DHT22;9266;51.132;17.062;2023-11-19T11:24:57;4.70;99.90
18281;DHT22;9266;51.132;17.062;2023-11-19T11:27:48;3.40;99.90
18281;DHT22;9266;51.132;17.062;2023-11-19T11:30:29;5.00;99.90
18281;DHT22;9266;51.132;17.062;2023-11-19T11:33:10;4.80;99.90
18281;DHT22;9266;51.132;17.062;2023-11-19T11:35:53;4.80;99.90
18281;DHT22;9266;51.132;17.062;2023-11-19T11:38:22;4.80;99.90
18281;DHT22;9266;51.132;17.062;2023-11-19T11:41:24;4.90;99.90
18281;DHT22;9266;51.132;17.062;2023-11-19T11:43:52;5.00;99.90
18281;DHT22;9266;51.132;17.062;2023-11-19T11:46:54;5.00;99.90
18281;DHT22;9266;51.132;17.062;2023-11-19T11:49:28;5.30;99.90
18281;DHT22;9266;51.132;17.062;2023-11-19T11:52:09;5.00;99.90
18281;DHT22;9266;51.132;17.062;2023-11-19T11:54:48;5.00;99.90
18281;DHT22;9266;51.132;17.062;2023-11-19T11:57:21;5.10;99.90
18281;DHT22;9266;51.132;17.062;2023-11-19T11:59:53;5.30;99.90
18281;DHT22;9266;51.132;17.062;2023-11-19T12:05:23;7.90;99.90
18281;DHT22;9266;51.132;17.062;2023-11-19T12:08:09;3.60;99.90
18281;DHT22;9266;51.132;17.062;2023-11-19T12:10:45;5.20;99.90
18281;DHT22;9266;51.132;17.062;2023-11-19T12:13:22;5.30;99.90
18281;DHT22;9266;51.132;17.062;2023-11-19T12:16:08;5.40;99.90
18281;DHT22;9266;51.132;17.062;2023-11-19T12:18:40;5.50;99.90
18281;DHT22;9266;51.132;17.062;2023-11-19T12:21:11;6.80;99.90
18281;DHT22;9266;51.132;17.062;2023-11-19T12:24:08;5.50;99.90
18281;DHT22;9266;51.132;17.062;2023-11-19T12:26:38;5.20;99.90
18281;DHT22;9266;51.132;17.062;2023-11-19T12:29:07;5.70;99.90
18281;DHT22;9266;51.132;17.062;2023-11-19T12:31:44;5.80;99.90
18281;DHT22;9266;51.132;17.062;2023-11-19T12:34:11;5.70;99.90
18281;DHT22;9266;51.132;17.062;2023-11-19T12:36:42;5.70;99.90
18281;DHT22;9266;51.132;17.062;2023-11-19T12:39:10;5.90;99.90
18281;DHT22;9266;51.132;17.062;2023-11-19T12:41:51;6.00;99.90
18281;DHT22;9266;51.132;17.062;2023-11-19T12:44:18;5.50;99.90
18281;DHT22;9266;51.132;17.062;2023-11-19T12:46:45;6.00;99.90
18281;DHT22;9266;51.132;17.062;2023-11-19T12:49:12;6.00;99.90
18281;DHT22;9266;51.132;17.062;2023-11-19T12:51:40;5.90;99.90
18281;DHT22;9266;51.132;17.062;2023-11-19T12:54:08;6.00;99.90
18281;DHT22;9266;51.132;17.062;2023-11-19T12:56:36;6.20;99.90
18281;DHT22;9266;51.132;17.062;2023-11-19T12:59:12;6.40;99.90
18281;DHT22;9266;51.132;17.062;2023-11-19T13:01:39;6.40;99.90
18281;DHT22;9266;51.132;17.062;2023-11-19T13:04:18;6.50;99.90
18281;DHT22;9266;51.132;17.062;2023-11-19T13:06:45;6.60;99.90
18281;DHT22;9266;51.132;17.062;2023-11-19T13:09:23;6.70;99.90
18281;DHT22;9266;51.132;17.062;2023-11-19T13:11:51;6.80;99.90
18281;DHT22;9266;51.132;17.062;2023-11-19T13:14:19;6.80;99.90
18281;DHT22;9266;51.132;17.062;2023-11-19T13:16:47;6.70;99.90
18281;DHT22;9266;51.132;17.062;2023-11-19T13:19:14;6.70;99.90
18281;DHT22;9266;51.132;17.062;2023-11-19T13:21:42;6.90;99.90
18281;DHT22;9266;51.132;17.062;2023-11-19T13:24:11;6.90;99.90
18281;DHT22;9266;51.132;17.062;2023-11-19T13:26:40;6.90;99.90
18281;DHT22;9266;51.132;17.062;2023-11-19T13:29:07;6.90;99.90
18281;DHT22;9266;51.132;17.062;2023-11-19T13:31:36;6.70;99.90
18281;DHT22;9266;51.132;17.062;2023-11-19T13:34:03;6.70;99.90
18281;DHT22;9266;51.132;17.062;2023-11-19T13:36:32;5.80;99.90
18281;DHT22;9266;51.132;17.062;2023-11-19T13:38:59;6.80;99.90
18281;DHT22;9266;51.132;17.062;2023-11-19T13:41:26;6.80;99.90
18281;DHT22;9266;51.132;17.062;2023-11-19T13:43:55;6.10;99.90
18281;DHT22;9266;51.132;17.062;2023-11-19T13:46:22;6.90;99.90
18281;DHT22;9266;51.132;17.062;2023-11-19T13:48:50;7.00;99.90
18281;DHT22;9266;51.132;17.062;2023-11-19T13:51:17;6.90;99.90
18281;DHT22;9266;51.132;17.062;2023-11-19T13:53:45;6.90;99.90
18281;DHT22;9266;51.132;17.062;2023-11-19T13:56:12;6.90;99.90
18281;DHT22;9266;51.132;17.062;2023-11-19T13:58:39;7.00;99.90
18281;DHT22;9266;51.132;17.062;2023-11-19T14:01:08;6.90;99.90
18281;DHT22;9266;51.132;17.062;2023-11-19T14:03:35;6.90;99.90
18281;DHT22;9266;51.132;17.062;2023-11-19T14:06:02;7.00;99.90
18281;DHT22;9266;51.132;17.062;2023-11-19T14:08:31;7.00;99.90
18281;DHT22;9266;51.132;17.062;2023-11-19T14:10:58;6.90;99.90
18281;DHT22;9266;51.132;17.062;2023-11-19T14:13:27;7.00;99.90
18281;DHT22;9266;51.132;17.062;2023-11-19T14:15:54;7.10;99.90
18281;DHT22;9266;51.132;17.062;2023-11-19T14:18:24;7.30;99.90
18281;DHT22;9266;51.132;17.062;2023-11-19T14:20:51;7.30;99.90
18281;DHT22;9266;51.132;17.062;2023-11-19T14:23:18;7.30;99.90
18281;DHT22;9266;51.132;17.062;2023-11-19T14:25:45;7.20;99.90
18281;DHT22;9266;51.132;17.062;2023-11-19T14:28:14;7.20;99.90
18281;DHT22;9266;51.132;17.062;2023-11-19T14:30:42;7.20;99.90
18281;DHT22;9266;51.132;17.062;2023-11-19T14:33:15;7.20;99.90
18281;DHT22;9266;51.132;17.062;2023-11-19T14:35:45;7.30;99.90
18281;DHT22;9266;51.132;17.062;2023-11-19T14:38:14;7.20;99.90
18281;DHT22;9266;51.132;17.062;2023-11-19T14:40:41;7.20;99.90
18281;DHT22;9266;51.132;17.062;2023-11-19T14:43:08;7.10;99.90
18281;DHT22;9266;51.132;17.062;2023-11-19T14:45:36;7.00;99.90
18281;DHT22;9266;51.132;17.062;2023-11-19T14:48:03;6.90;99.90
18281;DHT22;9266;51.132;17.062;2023-11-19T14:50:44;7.10;99.90
18281;DHT22;9266;51.132;17.062;2023-11-19T14:53:19;7.20;99.90
18281;DHT22;9266;51.132;17.062;2023-11-19T14:55:46;7.20;99.90
18281;DHT22;9266;51.132;17.062;2023-11-19T14:58:13;7.20;99.90
18281;DHT22;9266;51.132;17.062;2023-11-19T15:00:40;7.10;99.90
18281;DHT22;9266;51.132;17.062;2023-11-19T15:03:06;7.70;99.90
18281;DHT22;9266;51.132;17.062;2023-11-19T15:05:34;7.10;99.90
18281;DHT22;9266;51.132;17.062;2023-11-19T15:08:01;7.20;99.90
18281;DHT22;9266;51.132;17.062;2023-11-19T15:10:30;7.40;99.90
18281;DHT22;9266;51.132;17.062;2023-11-19T15:12:57;7.40;99.90
18281;DHT22;9266;51.132;17.062;2023-11-19T15:15:24;7.50;99.90
18281;DHT22;9266;51.132;17.062;2023-11-19T15:17:55;7.60;99.90
18281;DHT22;9266;51.132;17.062;2023-11-19T15:20:28;7.60;99.90
18281;DHT22;9266;51.132;17.062;2023-11-19T15:22:57;6.70;99.90
18281;DHT22;9266;51.132;17.062;2023-11-19T15:25:24;7.70;99.90
18281;DHT22;9266;51.132;17.062;2023-11-19T15:27:53;7.80;99.90
18281;DHT22;9266;51.132;17.062;2023-11-19T15:30:20;7.80;99.90
18281;DHT22;9266;51.132;17.062;2023-11-19T15:32:47;7.70;99.90
18281;DHT22;9266;51.132;17.062;2023-11-19T15:35:14;7.70;99.90
18281;DHT22;9266;51.132;17.062;2023-11-19T15:37:41;7.70;99.90
18281;DHT22;9266;51.132;17.062;2023-11-19T15:40:13;7.50;99.90
18281;DHT22;9266;51.132;17.062;2023-11-19T15:42:41;6.50;99.90
18281;DHT22;9266;51.132;17.062;2023-11-19T15:45:18;7.50;99.90
18281;DHT22;9266;51.132;17.062;2023-11-19T15:47:46;7.40;99.90
18281;DHT22;9266;51.132;17.062;2023-11-19T15:50:22;7.30;99.90
18281;DHT22;9266;51.132;17.062;2023-11-19T15:52:56;7.30;99.90
18281;DHT22;9266;51.132;17.062;2023-11-19T15:55:26;7.40;99.90
18281;DHT22;9266;51.132;17.062;2023-11-19T15:57:53;7.50;99.90
18281;DHT22;9266;51.132;17.062;2023-11-19T16:00:23;7.50;99.90
18281;DHT22;9266;51.132;17.062;2023-11-19T16:02:49;7.50;99.90
18281;DHT22;9266;51.132;17.062;2023-11-19T16:05:17;7.40;99.90
18281;DHT22;9266;51.132;17.062;2023-11-19T16:07:44;7.50;99.90
18281;DHT22;9266;51.132;17.062;2023-11-19T16:10:12;7.50;99.90
18281;DHT22;9266;51.132;17.062;2023-11-19T16:12:40;7.50;99.90
18281;DHT22;9266;51.132;17.062;2023-11-19T16:15:08;7.60;99.90
18281;DHT22;9266;51.132;17.062;2023-11-19T16:17:36;7.70;99.90
18281;DHT22;9266;51.132;17.062;2023-11-19T16:20:05;7.70;99.90
18281;DHT22;9266;51.132;17.062;2023-11-19T16:22:34;5.90;99.90
18281;DHT22;9266;51.132;17.062;2023-11-19T16:25:01;7.90;99.90
18281;DHT22;9266;51.132;17.062;2023-11-19T16:27:29;7.90;99.90
18281;DHT22;9266;51.132;17.062;2023-11-19T16:29:56;8.00;99.90